Time;durP1;ratioP1;P1;durP2;ratioP2;P2;SDS_P1;SDS_P2;PMS_P1;PMS_P2;Temp;Humidity;BMP_temperature;BMP_pressure;BME280_temperature;BME280_humidity;BME280_pressure;Samples;Min_cycle;Max_cycle;Signal;HPM_P1;HPM_P2
2022/01/26 00:06:15;;;;;;;23.10;18.50;;;;;;;20.55;29.92;103263.06;7313787;19;129048;-65
2022/01/26 00:08:42;;;;;;;23.20;18.90;;;;;;;20.52;29.57;103252.34;7318372;19;130007;-66
2022/01/26 00:11:09;;;;;;;21.20;18.83;;;;;;;20.50;29.89;103260.91;7315124;19;131179;-65
2022/01/26 00:13:36;;;;;;;22.02;19.63;;;;;;;20.48;29.91;103267.75;7318483;19;130582;-65
2022/01/26 00:16:07;;;;;;;23.10;19.05;;;;;;;20.46;29.88;103267.91;7314747;19;128886;-65
2022/01/26 00:18:37;;;;;;;23.02;20.10;;;;;;;20.45;29.54;103268.97;7317627;19;129069;-65
2022/01/26 00:21:19;;;;;;;23.38;19.85;;;;;;;20.44;29.37;103278.38;7315316;19;130669;-65
2022/01/26 00:26:34;;;;;;;26.15;21.23;;;;;;;20.40;29.64;103277.09;7318366;19;130179;-65
2022/01/26 00:40:08;;;;;;;25.30;21.42;;;;;;;20.31;29.55;103283.84;7318179;19;128912;-66
2022/01/26 00:42:38;;;;;;;26.08;21.10;;;;;;;20.28;29.47;103285.09;7314131;19;130792;-65
2022/01/26 00:45:07;;;;;;;26.40;22.83;;;;;;;20.27;29.94;103287.03;7316815;19;131755;-65
2022/01/26 00:47:34;;;;;;;27.75;22.98;;;;;;;20.25;29.47;103283.59;7315517;19;129101;-65
2022/01/26 00:50:07;;;;;;;30.35;22.27;;;;;;;20.24;29.36;103281.88;7316127;19;129849;-65
2022/01/26 00:52:42;;;;;;;29.17;21.90;;;;;;;20.22;29.56;103286.75;7316467;19;130389;-65
2022/01/26 00:55:12;;;;;;;28.13;23.10;;;;;;;20.21;29.69;103285.03;7314010;19;130274;-65
2022/01/26 00:57:39;;;;;;;28.35;23.17;;;;;;;20.20;29.87;103283.31;7316198;19;129187;-65
2022/01/26 01:00:13;;;;;;;29.42;23.63;;;;;;;20.19;29.65;103284.38;7313871;19;130780;-65
2022/01/26 01:02:40;;;;;;;30.95;23.55;;;;;;;20.18;29.87;103287.38;7315236;19;131375;-65
2022/01/26 01:05:16;;;;;;;30.92;24.63;;;;;;;20.16;29.75;103284.78;7313203;19;131546;-65
2022/01/26 01:07:46;;;;;;;29.30;24.08;;;;;;;20.15;29.60;103280.28;7315698;19;128840;-65
2022/01/26 01:10:16;;;;;;;30.83;25.13;;;;;;;20.13;29.81;103274.06;7316259;19;128945;-65
2022/01/26 01:12:44;;;;;;;31.30;25.65;;;;;;;20.12;29.32;103277.91;7312993;19;130516;-65
2022/01/26 01:15:15;;;;;;;32.00;25.20;;;;;;;20.12;29.35;103275.13;7316147;19;132629;-65
2022/01/26 01:17:50;;;;;;;37.97;28.13;;;;;;;20.09;29.30;103286.63;7312663;19;129521;-65
2022/01/26 01:20:44;;;;;;;36.67;29.33;;;;;;;20.06;29.33;103282.34;7316157;19;129078;-65
2022/01/26 01:31:43;;;;;;;39.60;30.77;;;;;;;19.97;29.21;103266.84;7310140;19;132174;-66
2022/01/26 01:34:12;;;;;;;38.50;29.73;;;;;;;19.95;28.90;103258.69;7314894;19;131589;-65
2022/01/26 01:36:41;;;;;;;39.15;30.65;;;;;;;19.95;29.00;103264.22;7313545;19;131393;-65
2022/01/26 01:39:08;;;;;;;39.67;29.70;;;;;;;19.93;29.34;103257.16;7313613;19;128895;-65
2022/01/26 01:41:38;;;;;;;36.00;30.55;;;;;;;19.91;29.18;103254.59;7315817;19;128812;-65
2022/01/26 01:44:09;;;;;;;34.28;28.40;;;;;;;19.90;29.38;103249.22;7312162;19;130800;-65
2022/01/26 01:46:37;;;;;;;35.25;28.58;;;;;;;19.89;29.19;103247.50;7315729;19;130448;-65
2022/01/26 01:49:06;;;;;;;36.65;29.20;;;;;;;19.88;29.45;103245.81;7311896;19;129198;-65
2022/01/26 01:51:37;;;;;;;34.55;28.02;;;;;;;19.88;29.20;103254.13;7314731;19;135893;-64
2022/01/26 01:54:05;;;;;;;33.67;28.42;;;;;;;19.86;29.13;103248.75;7312881;19;131224;-65
2022/01/26 01:56:32;;;;;;;35.90;28.10;;;;;;;19.86;29.32;103248.75;7313851;19;130884;-65
2022/01/26 01:58:59;;;;;;;33.60;27.98;;;;;;;19.86;29.28;103242.38;7314366;19;128983;-65
2022/01/26 02:01:26;;;;;;;31.13;26.65;;;;;;;19.84;29.32;103234.22;7313333;19;129117;-65
2022/01/26 02:03:53;;;;;;;30.52;26.40;;;;;;;19.82;29.40;103228.88;7315169;19;130659;-65
2022/01/26 02:06:20;;;;;;;31.63;26.38;;;;;;;19.82;29.16;103230.75;7311512;19;130498;-65
2022/01/26 02:08:47;;;;;;;32.38;27.17;;;;;;;19.81;29.20;103220.75;7314821;19;128850;-65
2022/01/26 02:11:14;;;;;;;31.27;25.98;;;;;;;19.81;29.02;103220.75;7310639;19;130882;-65
2022/01/26 02:13:55;;;;;;;33.33;26.98;;;;;;;19.79;29.37;103220.91;7315041;19;130544;-65
2022/01/26 02:57:45;;;;;;;28.48;23.27;;;;;;;19.60;29.60;103183.56;7310090;19;130686;-65
2022/01/26 03:00:17;;;;;;;27.35;22.92;;;;;;;19.57;29.47;103178.38;7310245;19;130375;-65
2022/01/26 03:05:16;;;;;;;26.48;22.63;;;;;;;19.56;29.92;103165.59;7312810;19;131609;-65
2022/01/26 03:10:31;;;;;;;25.90;22.60;;;;;;;19.56;29.92;103165.59;7312364;19;131650;-65
2022/01/26 03:13:08;;;;;;;29.63;22.50;;;;;;;19.55;29.51;103169.44;7310530;19;128988;-65
2022/01/26 03:15:44;;;;;;;28.53;23.83;;;;;;;19.54;29.78;103170.47;7313405;19;129032;-65
2022/01/26 03:20:55;;;;;;;25.83;22.35;;;;;;;19.51;29.91;103162.53;7311380;19;130570;-65
2022/01/26 03:34:14;;;;;;;26.13;22.48;;;;;;;19.47;29.61;103144.56;7311545;19;129050;-65
2022/01/26 03:39:20;;;;;;;25.20;21.27;;;;;;;19.45;29.76;103155.00;7308022;19;130509;-65
2022/01/26 03:41:52;;;;;;;25.42;22.52;;;;;;;19.44;30.02;103154.13;7313564;19;130533;-65
2022/01/26 03:44:19;;;;;;;25.95;21.80;;;;;;;19.43;30.07;103159.91;7310074;19;128837;-65
2022/01/26 03:46:48;;;;;;;25.23;21.10;;;;;;;19.43;29.67;103171.00;7313105;19;128943;-65
2022/01/26 03:49:15;;;;;;;25.50;21.38;;;;;;;19.43;29.70;103162.69;7310134;19;131343;-65
2022/01/26 03:51:42;;;;;;;26.38;21.98;;;;;;;19.41;30.09;103168.41;7311635;19;134942;-65
2022/01/26 03:54:10;;;;;;;27.90;21.88;;;;;;;19.42;29.66;103169.28;7312084;19;129063;-65
2022/01/26 03:56:38;;;;;;;26.08;21.20;;;;;;;19.40;29.83;103158.34;7311212;19;129272;-65
2022/01/26 03:59:05;;;;;;;25.02;22.00;;;;;;;19.40;29.61;103160.28;7312846;19;131378;-65
2022/01/26 04:01:32;;;;;;;25.67;21.80;;;;;;;19.38;29.77;103164.13;7309306;19;131402;-65
2022/01/26 04:04:00;;;;;;;26.83;22.17;;;;;;;19.38;30.13;103154.94;7313998;19;128928;-65
2022/01/26 04:06:29;;;;;;;29.20;22.67;;;;;;;19.37;29.72;103145.75;7309762;19;129363;-65
2022/01/26 04:08:56;;;;;;;24.58;21.40;;;;;;;19.37;29.84;103144.91;7312729;19;130978;-65
2022/01/26 04:11:33;;;;;;;23.95;20.55;;;;;;;19.35;29.85;103145.06;7309733;19;130524;-65
2022/01/26 04:14:05;;;;;;;25.27;21.75;;;;;;;19.35;30.17;103153.41;7311276;19;128972;-65
2022/01/26 04:16:31;;;;;;;25.70;21.52;;;;;;;19.33;30.00;103152.72;7312423;19;130671;-65
2022/01/26 04:18:59;;;;;;;25.55;21.70;;;;;;;19.33;29.76;103155.50;7308486;19;130502;-65
2022/01/26 04:24:01;;;;;;;27.05;22.08;;;;;;;19.31;30.12;103146.56;7309460;19;128791;-65
2022/01/26 04:26:42;;;;;;;26.88;21.55;;;;;;;19.31;30.13;103154.00;7311872;19;128927;-65
2022/01/26 04:29:15;;;;;;;26.23;20.88;;;;;;;19.29;30.18;103148.66;7309287;19;131338;-65
2022/01/26 04:31:41;;;;;;;25.45;21.60;;;;;;;19.29;29.85;103173.63;7309944;19;133429;-65
2022/01/26 04:34:08;;;;;;;25.45;22.17;;;;;;;19.28;29.73;103177.47;7310046;19;128887;-65
2022/01/26 04:36:42;;;;;;;27.92;22.70;;;;;;;19.28;30.15;103187.69;7308777;19;128745;-65
2022/01/26 04:39:14;;;;;;;29.75;23.70;;;;;;;19.28;29.85;103180.25;7309353;19;130571;-65
2022/01/26 04:41:47;;;;;;;27.05;22.20;;;;;;;19.26;30.15;103185.13;7307340;19;133849;-65
2022/01/26 04:44:25;;;;;;;26.73;21.75;;;;;;;19.23;30.24;103188.28;7311327;19;129042;-65
2022/01/26 04:46:53;;;;;;;25.17;21.40;;;;;;;19.22;30.06;103186.56;7308672;19;129065;-65
2022/01/26 04:49:20;;;;;;;26.55;21.65;;;;;;;19.23;29.77;103196.59;7309483;19;130633;-65
2022/01/26 04:51:47;;;;;;;26.30;22.02;;;;;;;19.24;30.15;103186.38;7311912;19;131297;-65
2022/01/26 04:54:14;;;;;;;26.20;21.58;;;;;;;19.26;29.71;103182.34;7316857;19;128964;-65
2022/01/26 04:56:41;;;;;;;24.95;21.80;;;;;;;19.29;29.69;103201.38;7318571;19;129047;-65
2022/01/26 04:59:07;;;;;;;28.08;20.90;;;;;;;19.37;29.81;103197.63;7314757;19;131928;-65
2022/01/26 05:01:34;;;;;;;24.15;20.65;;;;;;;19.49;29.92;103203.50;7318695;19;130486;-65
2022/01/26 05:04:01;;;;;;;24.13;20.10;;;;;;;19.64;29.77;103207.09;7313612;19;129026;-66
2022/01/26 05:06:28;;;;;;;23.55;20.10;;;;;;;19.81;29.25;103213.25;7316737;19;129931;-65
2022/01/26 05:08:55;;;;;;;22.90;19.63;;;;;;;19.99;29.39;103220.28;7315400;19;131810;-65
2022/01/26 05:11:31;;;;;;;21.92;18.55;;;;;;;20.18;29.08;103203.97;7316341;19;130500;-65
2022/01/26 05:13:59;;;;;;;21.48;18.13;;;;;;;20.40;28.81;103199.25;7318355;19;128790;-65
2022/01/26 05:16:27;;;;;;;23.42;18.42;;;;;;;20.64;28.54;103210.94;7315491;19;128976;-65
2022/01/26 05:18:54;;;;;;;20.45;17.27;;;;;;;20.87;28.14;103200.41;7316121;19;130576;-65
2022/01/26 05:21:23;;;;;;;21.25;17.35;;;;;;;21.12;28.19;103213.78;7313719;19;130473;-65
2022/01/26 05:23:50;;;;;;;18.00;15.93;;;;;;;21.35;27.68;103215.38;7313852;19;129070;-65
2022/01/26 05:26:17;;;;;;;20.08;16.25;;;;;;;21.51;27.47;103212.25;7312574;19;128931;-65
2022/01/26 05:28:44;;;;;;;20.10;17.13;;;;;;;21.65;27.53;103213.13;7317060;19;130735;-65
2022/01/26 05:31:11;;;;;;;22.40;18.83;;;;;;;21.77;27.02;103210.56;7312552;19;131126;-65
2022/01/26 05:33:38;;;;;;;19.50;16.38;;;;;;;21.88;27.26;103206.28;7315159;19;129287;-65
2022/01/26 05:36:05;;;;;;;19.63;17.17;;;;;;;21.91;27.04;103193.88;7315693;19;129051;-65
2022/01/26 05:38:32;;;;;;;20.00;17.25;;;;;;;21.91;27.24;103197.50;7314194;19;130596;-65
2022/01/26 05:41:01;;;;;;;22.05;18.23;;;;;;;21.92;26.72;103178.84;7315937;19;132833;-65
2022/01/26 05:43:29;;;;;;;20.42;17.55;;;;;;;21.89;26.75;103152.25;7312790;19;128871;-65
2022/01/26 05:46:01;;;;;;;20.02;17.02;;;;;;;21.86;26.94;103165.78;7315152;19;128863;-65
2022/01/26 05:48:28;;;;;;;21.17;18.27;;;;;;;21.81;27.02;103172.84;7312623;19;131509;-65
2022/01/26 05:51:04;;;;;;;20.15;16.92;;;;;;;21.75;26.80;103181.19;7315881;19;130576;-65
2022/01/26 05:53:33;;;;;;;20.30;17.88;;;;;;;21.69;27.06;103177.31;7313711;19;129523;-65
2022/01/26 05:56:00;;;;;;;20.83;18.40;;;;;;;21.62;27.01;103173.69;7314207;19;129136;-65
2022/01/26 05:58:27;;;;;;;19.85;17.33;;;;;;;21.55;27.03;103183.94;7315062;19;130487;-65
2022/01/26 06:00:54;;;;;;;23.13;18.15;;;;;;;21.46;27.07;103178.56;7311665;19;130396;-65
2022/01/26 06:03:21;;;;;;;21.55;18.20;;;;;;;21.39;27.31;103174.03;7315693;19;129527;-65
2022/01/26 06:05:48;;;;;;;22.30;18.38;;;;;;;21.31;27.30;103177.88;7312214;19;128808;-65
2022/01/26 06:08:15;;;;;;;22.88;18.60;;;;;;;21.23;27.80;103178.94;7315631;19;130621;-65
2022/01/26 06:10:41;;;;;;;21.67;18.52;;;;;;;21.15;27.92;103156.84;7306136;19;131124;-65
2022/01/26 06:13:08;;;;;;;21.45;18.35;;;;;;;21.07;27.60;103180.16;7312036;19;129152;-65
2022/01/26 06:15:37;;;;;;;22.70;19.05;;;;;;;21.00;27.62;103173.72;7309351;19;129045;-65
2022/01/26 06:18:04;;;;;;;23.90;20.02;;;;;;;20.96;28.05;103180.75;7313367;19;130651;-65
2022/01/26 06:20:31;;;;;;;24.67;19.33;;;;;;;20.92;27.82;103171.13;7313089;19;130430;-65
2022/01/26 06:22:58;;;;;;;24.00;19.25;;;;;;;20.90;27.69;103171.31;7314291;19;129303;-65
2022/01/26 06:25:26;;;;;;;26.75;19.92;;;;;;;20.92;27.91;103160.81;7314806;19;129457;-64
2022/01/26 06:27:55;;;;;;;23.63;19.02;;;;;;;20.94;27.69;103172.63;7312933;19;131553;-64
2022/01/26 06:30:23;;;;;;;25.67;18.85;;;;;;;20.98;27.86;103161.91;7315764;19;130569;-64
2022/01/26 06:32:51;;;;;;;22.90;18.05;;;;;;;21.02;28.11;103152.09;7312484;19;128897;-64
2022/01/26 06:35:20;;;;;;;24.85;18.83;;;;;;;21.08;27.93;103175.44;7312933;19;129014;-64
2022/01/26 06:37:46;;;;;;;25.90;18.35;;;;;;;21.13;27.71;103172.88;7308971;19;131054;-64
2022/01/26 06:40:13;;;;;;;23.38;18.85;;;;;;;21.19;27.91;103175.69;7311132;19;131430;-64
2022/01/26 06:42:56;;;;;;;21.52;17.63;;;;;;;21.22;27.90;103174.44;7308111;19;131471;-64
2022/01/26 06:45:26;;;;;;;22.30;16.80;;;;;;;21.28;27.72;103161.59;7308026;19;130417;-64
2022/01/26 06:50:35;;;;;;;23.35;18.45;;;;;;;21.34;28.04;103174.66;7310867;19;130523;-64
2022/01/26 06:53:02;;;;;;;23.95;19.08;;;;;;;21.37;27.72;103177.88;7312828;19;132312;-64
2022/01/26 06:55:29;;;;;;;21.70;17.80;;;;;;;21.42;27.70;103187.53;7313727;19;128863;-64
2022/01/26 06:57:56;;;;;;;22.95;17.98;;;;;;;21.45;27.48;103199.09;7314068;19;130682;-64
2022/01/26 07:00:23;;;;;;;22.90;17.17;;;;;;;21.49;27.93;103208.81;7312666;19;130635;-64
2022/01/26 07:02:50;;;;;;;21.45;17.02;;;;;;;21.53;27.70;103206.44;7313493;19;129001;-64
2022/01/26 07:05:21;;;;;;;20.23;16.23;;;;;;;21.57;27.58;103204.09;7315859;19;129135;-64
2022/01/26 07:07:48;;;;;;;18.77;15.70;;;;;;;21.59;27.66;103197.25;7313084;19;131255;-64
2022/01/26 07:10:16;;;;;;;18.60;15.15;;;;;;;21.63;27.25;103195.75;7315712;19;130786;-64
2022/01/26 07:12:42;;;;;;;20.45;16.00;;;;;;;21.64;27.55;103183.53;7312555;19;130774;-64
2022/01/26 07:23:07;;;;;;;20.55;16.27;;;;;;;21.75;27.61;103183.97;7315332;19;128842;-64
2022/01/26 07:25:35;;;;;;;18.73;15.30;;;;;;;21.78;27.80;103181.66;7312656;19;128986;-64
2022/01/26 07:28:04;;;;;;;19.30;15.82;;;;;;;21.79;27.25;103169.41;7313189;19;131489;-64
2022/01/26 07:30:32;;;;;;;19.25;15.82;;;;;;;21.81;27.76;103175.63;7311108;19;130638;-64
2022/01/26 07:32:58;;;;;;;18.55;14.85;;;;;;;21.82;27.66;103176.50;7313723;19;129089;-64
2022/01/26 07:35:25;;;;;;;19.00;14.93;;;;;;;21.81;27.79;103181.19;7311912;19;128738;-64
2022/01/26 07:37:57;;;;;;;19.52;15.00;;;;;;;21.79;27.42;103190.84;7313050;19;131416;-64
2022/01/26 07:40:23;;;;;;;19.77;14.27;;;;;;;21.76;27.44;103200.50;7313555;19;130416;-64
2022/01/26 07:42:50;;;;;;;20.38;15.60;;;;;;;21.73;27.50;103214.84;7311057;19;128923;-64
2022/01/26 07:45:18;;;;;;;21.20;16.63;;;;;;;21.69;27.88;103213.53;7312413;19;129347;-64
2022/01/26 07:47:46;;;;;;;19.08;15.48;;;;;;;21.65;27.72;103199.19;7310703;19;130643;-64
2022/01/26 07:50:15;;;;;;;19.52;15.15;;;;;;;21.62;27.55;103215.47;7313518;19;130420;-64
2022/01/26 07:52:42;;;;;;;20.48;16.77;;;;;;;21.56;28.11;103211.59;7310141;19;129870;-64
2022/01/26 07:55:14;;;;;;;18.63;15.32;;;;;;;21.52;27.90;103207.50;7313411;19;128983;-64
2022/01/26 07:57:43;;;;;;;18.33;14.25;;;;;;;21.47;27.73;103194.19;7311173;19;130790;-64
2022/01/26 08:00:11;;;;;;;20.45;15.75;;;;;;;21.43;28.02;103197.63;7309717;19;130536;-64
2022/01/26 08:02:38;;;;;;;19.13;15.35;;;;;;;21.39;28.22;103196.31;7312554;19;128952;-65
2022/01/26 08:05:06;;;;;;;19.83;16.08;;;;;;;21.32;28.28;103207.41;7311056;19;129005;-64
2022/01/26 08:07:32;;;;;;;23.00;17.90;;;;;;;21.27;28.33;103207.22;7313239;19;130924;-64
2022/01/26 08:09:59;;;;;;;21.13;16.33;;;;;;;21.19;28.04;103202.69;7309504;19;131636;-64
2022/01/26 08:12:27;;;;;;;22.85;16.95;;;;;;;21.15;28.11;103209.72;7312467;19;128876;-64
2022/01/26 08:15:14;;;;;;;21.77;17.40;;;;;;;21.12;28.36;103222.13;7309262;19;128913;-64
2022/01/26 08:17:42;;;;;;;24.10;16.00;;;;;;;21.09;28.41;103219.75;7311310;19;130961;-64
2022/01/26 08:20:10;;;;;;;22.52;17.30;;;;;;;21.05;28.27;103219.31;7309394;19;130774;-64
2022/01/26 08:22:38;;;;;;;22.73;17.17;;;;;;;21.01;28.11;103225.50;7309920;19;130076;-64
2022/01/26 08:25:06;;;;;;;19.85;15.55;;;;;;;20.98;28.18;103232.38;7313311;19;129196;-64
2022/01/26 08:27:40;;;;;;;19.80;15.10;;;;;;;20.95;28.60;103232.78;7314101;19;130651;-64
2022/01/26 08:30:11;;;;;;;19.15;15.48;;;;;;;20.90;28.50;103213.91;7320109;19;130416;-64
2022/01/26 08:32:39;;;;;;;22.58;15.40;;;;;;;20.89;28.64;103233.56;7316450;19;128882;-64
2022/01/26 08:35:06;;;;;;;19.48;14.85;;;;;;;20.85;28.46;103248.97;7319708;19;129441;-64
2022/01/26 08:37:33;;;;;;;20.92;15.63;;;;;;;20.82;28.74;103232.69;7316456;19;130723;-64
2022/01/26 08:40:00;;;;;;;20.45;15.38;;;;;;;20.79;28.75;103236.75;7315116;19;130246;-64
2022/01/26 08:42:27;;;;;;;21.77;15.18;;;;;;;20.77;29.00;103222.19;7317583;19;129457;-64
2022/01/26 08:44:54;;;;;;;17.38;14.60;;;;;;;20.74;28.66;103225.34;7316844;19;128900;-64
2022/01/26 08:47:21;;;;;;;17.02;14.00;;;;;;;20.72;28.88;103227.47;7319022;19;130688;-64
2022/01/26 08:49:48;;;;;;;17.20;14.27;;;;;;;20.69;28.89;103227.84;7313878;19;130476;-64
2022/01/26 08:52:15;;;;;;;18.52;14.43;;;;;;;20.67;28.79;103224.44;7319489;19;129003;-64
2022/01/26 08:54:42;;;;;;;20.52;15.15;;;;;;;20.64;29.23;103233.19;7314398;19;129815;-64
2022/01/26 08:57:09;;;;;;;21.83;14.05;;;;;;;20.65;29.08;103234.91;7318267;19;130860;-64
2022/01/26 08:59:36;;;;;;;16.48;13.73;;;;;;;20.68;29.09;103224.22;7316586;19;130704;-64
2022/01/26 09:02:03;;;;;;;19.95;13.93;;;;;;;20.73;28.84;103234.75;7316312;19;129114;-64
2022/01/26 09:04:30;;;;;;;15.45;12.77;;;;;;;20.78;28.79;103235.03;7315429;19;129026;-64
2022/01/26 09:07:00;;;;;;;17.30;13.27;;;;;;;20.84;29.25;103225.84;7317355;19;130752;-64
2022/01/26 09:09:30;;;;;;;16.67;13.48;;;;;;;20.88;28.85;103229.94;7318965;19;131073;-64
2022/01/26 09:12:06;;;;;;;17.05;13.00;;;;;;;20.94;28.88;103233.84;7316485;19;130168;-63
2022/01/26 09:14:33;;;;;;;16.33;13.15;;;;;;;21.01;28.62;103228.31;7319183;19;129787;-64
2022/01/26 09:17:02;;;;;;;15.18;13.18;;;;;;;21.05;28.68;103229.59;7314575;19;130424;-64
2022/01/26 09:19:31;;;;;;;17.90;12.52;;;;;;;21.11;28.34;103228.78;7316856;19;131152;-64
2022/01/26 09:22:09;;;;;;;17.27;12.90;;;;;;;21.16;28.45;103231.81;7316124;19;129567;-64
2022/01/26 09:24:37;;;;;;;16.27;12.95;;;;;;;21.21;28.58;103237.59;7316571;19;129059;-64
2022/01/26 09:27:06;;;;;;;15.25;12.65;;;;;;;21.26;28.89;103241.69;7317886;19;131377;-64
2022/01/26 09:29:34;;;;;;;14.80;11.88;;;;;;;21.30;28.63;103241.06;7315690;19;131676;-64
2022/01/26 09:32:02;;;;;;;14.23;12.10;;;;;;;21.32;28.55;103230.56;7318154;19;128920;-64
2022/01/26 09:34:30;;;;;;;15.57;11.93;;;;;;;21.37;28.88;103239.13;7314440;19;129617;-64
2022/01/26 09:36:57;;;;;;;16.52;12.82;;;;;;;21.40;28.53;103239.78;7317738;19;130710;-64
2022/01/26 09:39:24;;;;;;;16.60;12.50;;;;;;;21.43;28.75;103245.78;7314663;19;130508;-64
2022/01/26 09:41:52;;;;;;;15.95;11.93;;;;;;;21.45;28.63;103252.03;7317739;19;129275;-64
2022/01/26 09:44:19;;;;;;;13.75;11.70;;;;;;;21.48;28.54;103242.38;7317533;19;130311;-64
2022/01/26 09:46:47;;;;;;;13.80;12.00;;;;;;;21.50;28.40;103249.50;7315520;19;131260;-64
2022/01/26 09:49:16;;;;;;;12.70;10.52;;;;;;;21.52;28.14;103236.25;7318050;19;130695;-64
2022/01/26 09:51:47;;;;;;;14.43;12.20;;;;;;;21.56;28.74;103244.16;7314880;19;128996;-64
2022/01/26 09:54:17;;;;;;;15.45;11.10;;;;;;;21.58;28.22;103242.03;7317338;19;128687;-64
2022/01/26 09:56:47;;;;;;;14.50;11.55;;;;;;;21.60;28.37;103234.31;7314300;19;130913;-64
2022/01/26 09:59:18;;;;;;;12.20;10.88;;;;;;;21.62;28.23;103230.25;7316551;19;130485;-64
2022/01/26 10:01:50;;;;;;;14.43;11.05;;;;;;;21.62;28.27;103232.19;7315086;19;128974;-64
2022/01/26 10:04:28;;;;;;;13.63;11.07;;;;;;;21.62;28.35;103229.41;7316692;19;129763;-64
2022/01/26 10:07:26;;;;;;;13.23;10.27;;;;;;;21.60;28.48;103225.97;7317524;19;131177;-64
2022/01/26 10:15:36;;;;;;;12.52;11.15;;;;;;;21.43;28.72;103209.59;7311505;19;129128;-64
2022/01/26 10:18:04;;;;;;;14.18;11.27;;;;;;;21.39;28.83;103207.44;7311801;19;131233;-64
2022/01/26 10:20:46;;;;;;;13.57;11.20;;;;;;;21.34;28.45;103205.28;7312744;19;131533;-63
2022/01/26 10:23:18;;;;;;;13.65;10.75;;;;;;;21.28;28.71;103211.72;7313127;19;129416;-63
2022/01/26 10:25:47;;;;;;;13.88;11.52;;;;;;;21.22;28.80;103213.41;7316870;19;129001;-64
2022/01/26 10:28:15;;;;;;;13.02;10.43;;;;;;;21.19;28.81;103219.38;7313808;19;130617;-64
2022/01/26 10:30:48;;;;;;;13.45;11.05;;;;;;;21.14;28.62;103222.78;7314711;19;131250;-64
2022/01/26 10:33:16;;;;;;;12.50;10.60;;;;;;;21.11;28.71;103227.94;7316965;19;128932;-64
2022/01/26 10:35:44;;;;;;;14.07;10.80;;;;;;;21.06;29.12;103214.59;7313923;19;129770;-64
2022/01/26 10:38:10;;;;;;;12.50;10.88;;;;;;;21.02;28.69;103211.38;7316322;19;130699;-64
2022/01/26 10:40:39;;;;;;;14.55;10.60;;;;;;;21.01;28.64;103211.59;7312560;19;130481;-64
2022/01/26 10:43:13;;;;;;;15.43;10.27;;;;;;;20.97;29.09;103204.72;7316002;19;130043;-64
2022/01/26 10:45:57;;;;;;;12.90;10.55;;;;;;;20.94;28.84;103194.00;7313828;19;130796;-64
2022/01/26 10:53:50;;;;;;;15.52;11.27;;;;;;;20.84;29.27;103199.97;7312902;19;129007;-64
2022/01/26 10:56:17;;;;;;;14.98;10.23;;;;;;;20.81;29.29;103201.22;7314210;19;130026;-64
2022/01/26 10:58:43;;;;;;;13.43;10.82;;;;;;;20.79;29.56;103208.06;7311808;19;131718;-64
2022/01/26 11:01:10;;;;;;;12.65;11.07;;;;;;;20.77;29.21;103216.63;7313059;19;130479;-64
2022/01/26 11:03:38;;;;;;;12.65;10.30;;;;;;;20.74;29.62;103209.50;7313444;19;129533;-64
2022/01/26 11:06:07;;;;;;;14.15;10.95;;;;;;;20.72;29.74;103222.78;7313723;19;135863;-64
2022/01/26 11:08:39;;;;;;;13.45;11.27;;;;;;;20.70;29.25;103238.81;7312339;19;131402;-64
2022/01/26 11:11:17;;;;;;;13.52;10.20;;;;;;;20.68;29.58;103249.25;7311181;19;131875;-64
2022/01/26 11:13:43;;;;;;;11.07;9.82;;;;;;;20.66;29.62;103256.09;7315056;19;128917;-64
2022/01/26 11:16:12;;;;;;;13.07;10.90;;;;;;;20.65;29.55;103259.94;7311159;19;129506;-64
2022/01/26 11:18:46;;;;;;;13.80;10.80;;;;;;;20.63;29.36;103256.50;7315172;19;131379;-64
2022/01/26 11:21:36;;;;;;;12.45;10.30;;;;;;;20.59;29.69;103245.78;7311593;19;130526;-64
2022/01/26 11:24:15;;;;;;;13.45;11.40;;;;;;;20.55;29.60;103232.47;7311217;19;131068;-65
2022/01/26 11:26:44;;;;;;;14.65;11.85;;;;;;;20.51;29.23;103223.69;7309237;19;129732;-65
2022/01/26 11:29:25;;;;;;;14.65;11.52;;;;;;;20.51;29.47;103222.81;7307056;19;131207;-65
2022/01/26 11:32:14;;;;;;;13.20;11.20;;;;;;;20.52;29.59;103225.41;7313509;19;130885;-65
2022/01/26 11:34:41;;;;;;;16.88;12.02;;;;;;;20.53;29.71;103229.91;7308113;19;130282;-65
2022/01/26 11:37:13;;;;;;;16.25;11.77;;;;;;;20.57;29.60;103219.25;7309577;19;130298;-65
2022/01/26 11:45:16;;;;;;;21.48;12.75;;;;;;;20.71;29.01;103209.94;7314553;19;129804;-65
2022/01/26 11:48:20;;;;;;;15.60;11.98;;;;;;;20.78;28.50;103207.22;7309436;19;129541;-65
2022/01/26 11:50:58;;;;;;;18.02;12.02;;;;;;;20.84;28.69;103202.75;7310437;19;131912;-64
2022/01/26 11:53:26;;;;;;;15.82;11.88;;;;;;;20.88;28.42;103201.25;7314412;19;130467;-65
2022/01/26 11:56:02;;;;;;;15.38;12.45;;;;;;;20.94;28.36;103205.13;7312103;19;129548;-65
2022/01/26 11:58:37;;;;;;;18.23;11.27;;;;;;;20.98;28.57;103206.44;7312848;19;131147;-66
2022/01/26 12:01:29;;;;;;;18.00;11.55;;;;;;;21.00;28.83;103198.75;7312327;19;131387;-65
2022/01/26 12:04:03;;;;;;;15.18;11.38;;;;;;;21.01;28.39;103187.41;7320739;19;130592;-66
2022/01/26 12:06:40;;;;;;;17.25;11.35;;;;;;;21.02;28.33;103193.84;7316046;19;128905;-65
2022/01/26 12:09:09;;;;;;;18.42;11.45;;;;;;;21.02;28.72;103191.06;7319310;19;129115;-66
2022/01/26 12:11:36;;;;;;;18.25;11.32;;;;;;;21.01;28.47;103190.19;7316440;19;130595;-65
2022/01/26 12:14:05;;;;;;;18.52;12.18;;;;;;;21.01;28.77;103189.34;7319162;19;131231;-66
2022/01/26 12:16:43;;;;;;;19.75;11.73;;;;;;;20.99;28.82;103183.13;7319063;19;129461;-67
2022/01/26 12:36:13;;;;;;;15.73;11.48;;;;;;;20.71;28.22;103178.44;7318339;19;130648;-65
2022/01/26 12:38:47;;;;;;;17.77;10.90;;;;;;;20.68;28.44;103179.72;7308729;19;128900;-66
2022/01/26 12:43:56;;;;;;;19.50;11.35;;;;;;;20.65;28.42;103179.28;7321675;19;130710;-65
2022/01/26 12:46:29;;;;;;;17.52;10.65;;;;;;;20.65;28.80;103170.94;7318494;19;130575;-65
2022/01/26 12:49:04;;;;;;;15.02;10.93;;;;;;;20.65;28.80;103168.16;7320103;19;129653;-65
2022/01/26 12:51:45;;;;;;;16.67;10.73;;;;;;;20.69;28.83;103163.88;7315470;19;129204;-66
2022/01/26 12:54:13;;;;;;;14.98;10.18;;;;;;;20.71;28.87;103172.88;7319870;19;129825;-66
2022/01/26 12:56:40;;;;;;;15.15;10.38;;;;;;;20.76;28.94;103164.81;7315099;19;130517;-65
2022/01/26 12:59:20;;;;;;;18.30;10.30;;;;;;;20.81;29.00;103167.84;7317621;19;129246;-66
2022/01/26 13:01:53;;;;;;;15.23;10.43;;;;;;;20.86;28.51;103165.31;7316129;19;128849;-65
2022/01/26 13:04:20;;;;;;;16.73;10.10;;;;;;;20.92;28.60;103173.91;7317230;19;130786;-65
2022/01/26 13:06:51;;;;;;;14.10;10.18;;;;;;;20.97;28.50;103174.13;7317308;19;130656;-66
2022/01/26 13:09:29;;;;;;;13.68;9.63;;;;;;;21.02;28.39;103174.38;7315024;19;128877;-66
2022/01/26 13:12:02;;;;;;;17.42;10.23;;;;;;;21.08;28.65;103181.03;7318025;19;128902;-64
2022/01/26 13:14:38;;;;;;;14.30;10.25;;;;;;;21.12;28.54;103168.38;7315165;19;131558;-66
2022/01/26 13:23:04;;;;;;;13.47;9.33;;;;;;;21.23;28.29;103170.59;7317038;19;129895;-65
2022/01/26 13:38:56;;;;;;;14.32;9.65;;;;;;;21.39;27.87;103141.50;7317838;19;129999;-66
2022/01/26 13:41:49;;;;;;;14.85;9.90;;;;;;;21.42;27.87;103141.03;7313867;19;128894;-66
2022/01/26 13:54:46;;;;;;;14.93;9.77;;;;;;;21.52;27.36;103143.47;7313878;19;129015;-66
2022/01/26 13:59:56;;;;;;;12.57;9.63;;;;;;;21.54;27.46;103137.69;7312578;19;130416;-66
2022/01/26 14:02:26;;;;;;;13.73;9.07;;;;;;;21.54;27.82;103137.69;7312657;19;128905;-66
2022/01/26 14:04:55;;;;;;;14.20;10.05;;;;;;;21.54;27.57;103138.53;7313003;19;129096;-67
2022/01/26 14:07:21;;;;;;;14.25;9.77;;;;;;;21.56;27.59;103129.97;7312982;19;131335;-66